sensor_id;sensor_type;location;lat;lon;timestamp;pressure;altitude;pressure_sealevel;temperature;humidity
58973;BME280;44750;52.040;7.472;2023-05-02T00:03:38;100232.63;;;11.80;43.04
58973;BME280;44750;52.040;7.472;2023-05-02T00:08:39;100254.28;;;11.88;41.52
58973;BME280;44750;52.040;7.472;2023-05-02T00:13:39;100251.09;;;11.93;41.13
58973;BME280;44750;52.040;7.472;2023-05-02T00:18:39;100236.34;;;11.87;38.68
58973;BME280;44750;52.040;7.472;2023-05-02T00:23:39;100223.66;;;11.80;36.46
58973;BME280;44750;52.040;7.472;2023-05-02T00:28:39;100233.69;;;11.63;33.45
58973;BME280;44750;52.040;7.472;2023-05-02T00:33:40;100229.94;;;11.64;28.90
58973;BME280;44750;52.040;7.472;2023-05-02T00:38:40;100251.59;;;11.80;25.46
58973;BME280;44750;52.040;7.472;2023-05-02T00:43:40;100254.84;;;11.76;25.39
58973;BME280;44750;52.040;7.472;2023-05-02T00:48:41;100257.91;;;11.64;24.51
58973;BME280;44750;52.040;7.472;2023-05-02T00:53:41;100273.50;;;11.62;22.43
58973;BME280;44750;52.040;7.472;2023-05-02T00:58:42;100289.94;;;11.69;20.92
58973;BME280;44750;52.040;7.472;2023-05-02T01:09:09;100287.72;;;11.56;17.87
58973;BME280;44750;52.040;7.472;2023-05-02T01:14:13;100297.75;;;11.56;13.90
58973;BME280;44750;52.040;7.472;2023-05-02T01:19:24;100295.53;;;11.34;11.74
58973;BME280;44750;52.040;7.472;2023-05-02T01:24:29;100325.66;;;11.31;6.00
58973;BME280;44750;52.040;7.472;2023-05-02T01:29:32;100343.13;;;11.37;1.91
58973;BME280;44750;52.040;7.472;2023-05-02T01:34:33;100371.25;;;11.44;0.00
58973;BME280;44750;52.040;7.472;2023-05-02T01:39:37;100394.63;;;11.45;0.00
58973;BME280;44750;52.040;7.472;2023-05-02T01:44:40;100421.38;;;11.40;0.00
58973;BME280;44750;52.040;7.472;2023-05-02T01:49:42;100456.25;;;11.43;0.00
58973;BME280;44750;52.040;7.472;2023-05-02T01:54:43;100511.56;;;11.59;0.00
58973;BME280;44750;52.040;7.472;2023-05-02T01:59:45;100537.50;;;11.69;0.00
58973;BME280;44750;52.040;7.472;2023-05-02T02:04:47;100552.59;;;11.72;0.00
58973;BME280;44750;52.040;7.472;2023-05-02T02:09:48;100571.22;;;11.67;0.00
58973;BME280;44750;52.040;7.472;2023-05-02T02:15:16;100580.06;;;11.69;0.00
58973;BME280;44750;52.040;7.472;2023-05-02T02:20:17;100596.00;;;11.72;0.00
58973;BME280;44750;52.040;7.472;2023-05-02T02:25:18;100600.88;;;11.68;0.00
58973;BME280;44750;52.040;7.472;2023-05-02T02:30:18;100621.69;;;11.60;0.00
58973;BME280;44750;52.040;7.472;2023-05-02T02:35:19;100636.78;;;11.62;0.00
58973;BME280;44750;52.040;7.472;2023-05-02T02:40:31;100640.59;;;11.51;0.00
58973;BME280;44750;52.040;7.472;2023-05-02T02:56:05;100731.00;;;11.42;0.00
58973;BME280;44750;52.040;7.472;2023-05-02T03:01:14;100752.25;;;11.47;0.00
58973;BME280;44750;52.040;7.472;2023-05-02T03:06:17;100775.31;;;11.51;0.00
58973;BME280;44750;52.040;7.472;2023-05-02T03:11:18;100798.31;;;11.47;0.00
58973;BME280;44750;52.040;7.472;2023-05-02T03:16:39;100835.09;;;11.49;0.00
58973;BME280;44750;52.040;7.472;2023-05-02T03:21:39;100844.50;;;11.37;0.00
58973;BME280;44750;52.040;7.472;2023-05-02T03:26:40;100878.69;;;11.38;0.00
58973;BME280;44750;52.040;7.472;2023-05-02T03:31:41;100916.28;;;11.33;0.00
58973;BME280;44750;52.040;7.472;2023-05-02T03:36:41;100954.22;;;11.33;0.00
58973;BME280;44750;52.040;7.472;2023-05-02T03:41:41;100960.56;;;11.24;0.00
58973;BME280;44750;52.040;7.472;2023-05-02T03:46:41;100997.88;;;11.30;0.00
58973;BME280;44750;52.040;7.472;2023-05-02T03:51:42;101025.59;;;11.14;0.00
58973;BME280;44750;52.040;7.472;2023-05-02T03:56:42;101053.56;;;11.14;0.00
58973;BME280;44750;52.040;7.472;2023-05-02T04:01:47;101086.56;;;11.00;0.00
58973;BME280;44750;52.040;7.472;2023-05-02T04:06:48;101127.44;;;10.97;0.00
58973;BME280;44750;52.040;7.472;2023-05-02T04:11:48;101140.59;;;10.92;0.00
58973;BME280;44750;52.040;7.472;2023-05-02T04:16:49;101187.63;;;10.91;0.00
58973;BME280;44750;52.040;7.472;2023-05-02T04:21:50;101213.16;;;10.68;0.00
58973;BME280;44750;52.040;7.472;2023-05-02T04:26:51;101239.50;;;10.57;0.00
58973;BME280;44750;52.040;7.472;2023-05-02T04:31:52;101274.69;;;10.57;0.00
58973;BME280;44750;52.040;7.472;2023-05-02T04:36:53;101269.94;;;10.39;0.00
58973;BME280;44750;52.040;7.472;2023-05-02T04:41:53;101297.44;;;10.44;0.00
58973;BME280;44750;52.040;7.472;2023-05-02T04:46:54;101321.13;;;10.52;0.00
58973;BME280;44750;52.040;7.472;2023-05-02T04:51:54;101325.88;;;10.60;0.00
58973;BME280;44750;52.040;7.472;2023-05-02T04:56:54;101339.25;;;10.61;0.00
58973;BME280;44750;52.040;7.472;2023-05-02T05:01:55;101321.72;;;10.56;0.00
58973;BME280;44750;52.040;7.472;2023-05-02T05:06:55;101346.84;;;10.77;0.00
58973;BME280;44750;52.040;7.472;2023-05-02T05:11:55;101338.72;;;10.77;0.00
58973;BME280;44750;52.040;7.472;2023-05-02T05:16:56;101329.31;;;10.81;0.00
58973;BME280;44750;52.040;7.472;2023-05-02T05:21:56;101311.91;;;10.74;0.00
58973;BME280;44750;52.040;7.472;2023-05-02T05:26:56;101308.66;;;10.80;0.00
58973;BME280;44750;52.040;7.472;2023-05-02T05:31:57;101280.84;;;10.68;0.00
58973;BME280;44750;52.040;7.472;2023-05-02T05:36:57;101271.13;;;10.66;0.00
58973;BME280;44750;52.040;7.472;2023-05-02T05:41:57;101235.19;;;10.44;0.00
58973;BME280;44750;52.040;7.472;2023-05-02T05:46:57;101244.91;;;10.47;0.00
58973;BME280;44750;52.040;7.472;2023-05-02T05:51:58;101216.31;;;10.13;0.00
58973;BME280;44750;52.040;7.472;2023-05-02T05:56:58;101193.88;;;9.61;0.00
58973;BME280;44750;52.040;7.472;2023-05-02T06:01:58;101223.59;;;9.30;0.00
58973;BME280;44750;52.040;7.472;2023-05-02T06:06:58;101255.59;;;9.13;0.00
58973;BME280;44750;52.040;7.472;2023-05-02T06:12:00;101255.78;;;8.68;0.00
58973;BME280;44750;52.040;7.472;2023-05-02T06:17:00;101255.50;;;7.93;0.00
58973;BME280;44750;52.040;7.472;2023-05-02T06:22:01;101304.13;;;7.80;0.00
58973;BME280;44750;52.040;7.472;2023-05-02T06:27:01;101332.97;;;7.56;0.00
58973;BME280;44750;52.040;7.472;2023-05-02T06:32:01;101361.09;;;7.40;0.00
58973;BME280;44750;52.040;7.472;2023-05-02T06:37:01;101417.50;;;7.55;0.00
58973;BME280;44750;52.040;7.472;2023-05-02T06:42:02;101472.72;;;7.84;0.00
58973;BME280;44750;52.040;7.472;2023-05-02T06:47:03;101489.13;;;7.81;0.00
58973;BME280;44750;52.040;7.472;2023-05-02T06:52:03;101531.59;;;8.02;0.00
58973;BME280;44750;52.040;7.472;2023-05-02T06:57:04;101540.34;;;8.17;0.00
58973;BME280;44750;52.040;7.472;2023-05-02T07:02:05;101528.06;;;8.01;0.00
58973;BME280;44750;52.040;7.472;2023-05-02T07:07:05;101561.06;;;8.16;0.00
58973;BME280;44750;52.040;7.472;2023-05-02T07:12:05;101540.31;;;8.06;0.00
58973;BME280;44750;52.040;7.472;2023-05-02T07:17:06;101560.56;;;8.11;0.00
58973;BME280;44750;52.040;7.472;2023-05-02T07:22:07;101557.84;;;8.00;0.00
58973;BME280;44750;52.040;7.472;2023-05-02T07:27:11;101576.53;;;8.14;0.00
58973;BME280;44750;52.040;7.472;2023-05-02T07:32:11;101538.91;;;7.89;0.00
58973;BME280;44750;52.040;7.472;2023-05-02T07:37:12;101538.44;;;7.95;0.00
58973;BME280;44750;52.040;7.472;2023-05-02T07:42:12;101501.13;;;7.77;0.00
58973;BME280;44750;52.040;7.472;2023-05-02T07:47:12;101500.06;;;7.91;0.00
58973;BME280;44750;52.040;7.472;2023-05-02T07:52:12;101480.84;;;7.96;0.00
58973;BME280;44750;52.040;7.472;2023-05-02T07:57:13;101438.78;;;7.82;0.00
58973;BME280;44750;52.040;7.472;2023-05-02T08:02:13;101422.97;;;7.77;0.00
58973;BME280;44750;52.040;7.472;2023-05-02T08:07:13;101424.47;;;7.93;0.00
58973;BME280;44750;52.040;7.472;2023-05-02T08:12:13;101437.88;;;8.17;0.00
58973;BME280;44750;52.040;7.472;2023-05-02T08:17:14;101422.88;;;8.60;0.76
58973;BME280;44750;52.040;7.472;2023-05-02T08:22:14;101380.88;;;8.78;17.62
58973;BME280;44750;52.040;7.472;2023-05-02T08:27:14;101366.41;;;9.56;27.38
58973;BME280;44750;52.040;7.472;2023-05-02T08:32:14;101252.84;;;9.25;45.71
58973;BME280;44750;52.040;7.472;2023-05-02T08:37:14;101213.69;;;9.40;55.32
58973;BME280;44750;52.040;7.472;2023-05-02T08:42:15;101172.44;;;9.38;69.45
58973;BME280;44750;52.040;7.472;2023-05-02T08:47:17;101142.00;;;9.67;84.09
58973;BME280;44750;52.040;7.472;2023-05-02T08:52:18;101053.69;;;9.97;100.00
58973;BME280;44750;52.040;7.472;2023-05-02T08:57:19;101013.84;;;10.48;100.00
58973;BME280;44750;52.040;7.472;2023-05-02T09:02:38;100955.09;;;10.58;100.00
58973;BME280;44750;52.040;7.472;2023-05-02T09:07:47;100943.13;;;10.98;100.00
58973;BME280;44750;52.040;7.472;2023-05-02T09:12:48;100917.22;;;10.86;100.00
58973;BME280;44750;52.040;7.472;2023-05-02T09:17:48;100913.13;;;11.10;100.00
58973;BME280;44750;52.040;7.472;2023-05-02T09:22:50;100908.66;;;11.18;100.00
58973;BME280;44750;52.040;7.472;2023-05-02T09:27:52;100889.66;;;11.46;100.00
58973;BME280;44750;52.040;7.472;2023-05-02T09:32:52;100902.03;;;11.67;100.00
58973;BME280;44750;52.040;7.472;2023-05-02T09:37:55;100897.66;;;11.74;100.00
58973;BME280;44750;52.040;7.472;2023-05-02T09:42:55;100852.38;;;11.12;100.00
58973;BME280;44750;52.040;7.472;2023-05-02T09:48:00;100865.38;;;11.63;100.00
58973;BME280;44750;52.040;7.472;2023-05-02T09:53:02;100854.28;;;11.74;100.00
58973;BME280;44750;52.040;7.472;2023-05-02T09:58:03;100807.84;;;10.97;100.00
58973;BME280;44750;52.040;7.472;2023-05-02T10:03:06;100844.72;;;11.26;100.00
58973;BME280;44750;52.040;7.472;2023-05-02T10:08:07;100765.59;;;10.40;100.00
58973;BME280;44750;52.040;7.472;2023-05-02T10:13:08;100849.25;;;10.89;100.00
58973;BME280;44750;52.040;7.472;2023-05-02T10:18:14;100806.03;;;10.87;100.00
58973;BME280;44750;52.040;7.472;2023-05-02T10:23:17;100785.56;;;10.85;100.00
58973;BME280;44750;52.040;7.472;2023-05-02T10:28:18;100782.09;;;11.11;100.00
58973;BME280;44750;52.040;7.472;2023-05-02T10:33:20;100767.78;;;11.18;100.00
58973;BME280;44750;52.040;7.472;2023-05-02T10:38:21;100791.91;;;11.74;100.00
58973;BME280;44750;52.040;7.472;2023-05-02T10:43:23;100756.44;;;11.94;100.00
58973;BME280;44750;52.040;7.472;2023-05-02T10:48:25;100662.03;;;11.63;100.00
58973;BME280;44750;52.040;7.472;2023-05-02T10:58:26;100701.97;;;11.87;100.00
58973;BME280;44750;52.040;7.472;2023-05-02T11:24:50;100562.69;;;13.99;100.00
58973;BME280;44750;52.040;7.472;2023-05-02T11:29:51;100219.38;;;13.43;98.17
58973;BME280;44750;52.040;7.472;2023-05-02T11:34:51;100164.19;;;13.19;97.63
58973;BME280;44750;52.040;7.472;2023-05-02T11:40:09;99957.16;;;12.56;96.77
58973;BME280;44750;52.040;7.472;2023-05-02T11:45:09;100093.22;;;13.14;96.39
58973;BME280;44750;52.040;7.472;2023-05-02T11:50:11;100025.03;;;13.53;93.29
58973;BME280;44750;52.040;7.472;2023-05-02T11:55:12;99669.09;;;12.87;91.42
58973;BME280;44750;52.040;7.472;2023-05-02T12:00:13;99758.03;;;13.00;92.74
58973;BME280;44750;52.040;7.472;2023-05-02T12:05:14;99884.56;;;13.82;91.39
58973;BME280;44750;52.040;7.472;2023-05-02T12:10:14;99505.69;;;13.12;90.12
58973;BME280;44750;52.040;7.472;2023-05-02T12:15:15;99724.22;;;13.46;91.80
58973;BME280;44750;52.040;7.472;2023-05-02T12:20:16;99734.47;;;14.07;89.23
58973;BME280;44750;52.040;7.472;2023-05-02T12:25:16;99733.41;;;14.78;86.50
58973;BME280;44750;52.040;7.472;2023-05-02T12:30:29;99406.91;;;14.75;82.23
58973;BME280;44750;52.040;7.472;2023-05-02T12:35:30;99335.72;;;14.51;82.16
58973;BME280;44750;52.040;7.472;2023-05-02T12:40:30;99264.09;;;14.44;81.40
58973;BME280;44750;52.040;7.472;2023-05-02T12:45:30;98963.16;;;14.16;78.94
58973;BME280;44750;52.040;7.472;2023-05-02T12:50:35;98811.38;;;13.68;79.79
58973;BME280;44750;52.040;7.472;2023-05-02T12:55:36;98787.63;;;13.82;79.02
58973;BME280;44750;52.040;7.472;2023-05-02T13:00:39;98956.59;;;13.92;79.99
58973;BME280;44750;52.040;7.472;2023-05-02T13:05:39;98884.16;;;13.66;81.72
58973;BME280;44750;52.040;7.472;2023-05-02T13:10:40;99118.31;;;14.48;81.11
58973;BME280;44750;52.040;7.472;2023-05-02T13:15:41;98662.75;;;13.80;79.62
58973;BME280;44750;52.040;7.472;2023-05-02T13:20:41;98534.94;;;13.43;79.85
58973;BME280;44750;52.040;7.472;2023-05-02T13:25:41;98826.28;;;14.16;79.42
58973;BME280;44750;52.040;7.472;2023-05-02T13:30:41;98641.81;;;14.55;76.43
58973;BME280;44750;52.040;7.472;2023-05-02T13:35:42;98736.59;;;14.65;77.97
58973;BME280;44750;52.040;7.472;2023-05-02T13:40:42;98360.72;;;13.94;77.30
58973;BME280;44750;52.040;7.472;2023-05-02T13:45:42;98442.13;;;13.46;80.59
58973;BME280;44750;52.040;7.472;2023-05-02T13:50:43;98237.19;;;12.56;82.58
58973;BME280;44750;52.040;7.472;2023-05-02T13:55:43;98472.44;;;12.30;84.91
58973;BME280;44750;52.040;7.472;2023-05-02T14:00:43;98500.63;;;13.05;82.25
58973;BME280;44750;52.040;7.472;2023-05-02T14:05:43;98262.72;;;12.67;81.85
58973;BME280;44750;52.040;7.472;2023-05-02T14:10:43;98742.31;;;13.76;82.51
58973;BME280;44750;52.040;7.472;2023-05-02T14:15:44;98285.09;;;13.30;79.42
58973;BME280;44750;52.040;7.472;2023-05-02T14:20:44;98069.78;;;12.38;82.42
58973;BME280;44750;52.040;7.472;2023-05-02T14:25:44;98439.22;;;13.04;83.30
58973;BME280;44750;52.040;7.472;2023-05-02T14:30:47;98229.09;;;12.31;85.10
58973;BME280;44750;52.040;7.472;2023-05-02T14:35:47;98307.03;;;12.42;85.04
58973;BME280;44750;52.040;7.472;2023-05-02T14:40:47;98523.63;;;12.52;87.12
58973;BME280;44750;52.040;7.472;2023-05-02T14:45:48;98237.34;;;11.99;87.97
58973;BME280;44750;52.040;7.472;2023-05-02T14:50:48;98564.38;;;11.93;90.93
58973;BME280;44750;52.040;7.472;2023-05-02T14:55:48;98798.94;;;12.56;90.08
58973;BME280;44750;52.040;7.472;2023-05-02T15:00:48;98433.19;;;12.33;87.27
58973;BME280;44750;52.040;7.472;2023-05-02T15:05:49;98473.03;;;11.94;89.03
58973;BME280;44750;52.040;7.472;2023-05-02T15:10:49;98754.59;;;12.17;90.26
58973;BME280;44750;52.040;7.472;2023-05-02T15:15:49;98585.09;;;12.33;87.70
58973;BME280;44750;52.040;7.472;2023-05-02T15:20:49;98606.28;;;12.49;86.66
58973;BME280;44750;52.040;7.472;2023-05-02T15:25:50;98539.75;;;12.40;86.32
58973;BME280;44750;52.040;7.472;2023-05-02T15:30:50;98520.66;;;12.53;86.90
58973;BME280;44750;52.040;7.472;2023-05-02T15:35:55;98488.47;;;12.32;86.82
58973;BME280;44750;52.040;7.472;2023-05-02T15:40:57;98627.06;;;12.69;87.28
58973;BME280;44750;52.040;7.472;2023-05-02T15:45:58;98792.31;;;13.43;85.46
58973;BME280;44750;52.040;7.472;2023-05-02T15:50:58;98318.59;;;13.12;82.72
58973;BME280;44750;52.040;7.472;2023-05-02T15:55:59;98343.25;;;13.10;83.07
58973;BME280;44750;52.040;7.472;2023-05-02T16:00:59;98433.47;;;13.12;84.64
58973;BME280;44750;52.040;7.472;2023-05-02T16:05:59;98238.81;;;12.20;86.92
58973;BME280;44750;52.040;7.472;2023-05-02T16:11:00;98560.78;;;12.06;89.51
58973;BME280;44750;52.040;7.472;2023-05-02T16:16:00;98744.09;;;12.34;90.55
58973;BME280;44750;52.040;7.472;2023-05-02T16:21:00;98628.66;;;11.73;91.45
58973;BME280;44750;52.040;7.472;2023-05-02T16:26:01;98842.81;;;12.06;92.00
58973;BME280;44750;52.040;7.472;2023-05-02T16:31:05;98648.06;;;11.56;92.67
58973;BME280;44750;52.040;7.472;2023-05-02T16:36:05;99082.81;;;12.24;94.23
58973;BME280;44750;52.040;7.472;2023-05-02T16:41:06;98843.00;;;11.84;93.82
58973;BME280;44750;52.040;7.472;2023-05-02T16:46:06;98896.75;;;11.61;95.36
58973;BME280;44750;52.040;7.472;2023-05-02T16:51:06;98902.00;;;11.76;94.11
58973;BME280;44750;52.040;7.472;2023-05-02T16:56:06;98736.66;;;11.69;92.46
58973;BME280;44750;52.040;7.472;2023-05-02T17:01:08;98911.38;;;11.73;93.35
58973;BME280;44750;52.040;7.472;2023-05-02T17:06:09;98781.66;;;11.50;92.73
58973;BME280;44750;52.040;7.472;2023-05-02T17:11:09;98722.66;;;11.12;93.74
58973;BME280;44750;52.040;7.472;2023-05-02T17:16:09;98929.31;;;11.19;95.85
58973;BME280;44750;52.040;7.472;2023-05-02T17:21:10;99106.63;;;10.95;98.88
58973;BME280;44750;52.040;7.472;2023-05-02T17:26:10;99351.47;;;11.44;100.00
58973;BME280;44750;52.040;7.472;2023-05-02T17:31:10;99091.47;;;11.00;100.00
58973;BME280;44750;52.040;7.472;2023-05-02T17:36:11;99230.34;;;10.79;100.00
58973;BME280;44750;52.040;7.472;2023-05-02T17:41:11;99260.81;;;10.51;100.00
58973;BME280;44750;52.040;7.472;2023-05-02T17:46:11;99360.19;;;10.73;100.00
58973;BME280;44750;52.040;7.472;2023-05-02T17:51:11;99298.69;;;10.81;100.00
58973;BME280;44750;52.040;7.472;2023-05-02T17:56:12;99209.47;;;10.73;100.00
58973;BME280;44750;52.040;7.472;2023-05-02T18:01:12;99309.91;;;10.78;100.00
58973;BME280;44750;52.040;7.472;2023-05-02T18:06:16;99305.69;;;10.61;100.00
58973;BME280;44750;52.040;7.472;2023-05-02T18:11:18;99248.44;;;10.42;100.00
58973;BME280;44750;52.040;7.472;2023-05-02T18:16:18;99438.88;;;10.71;100.00
58973;BME280;44750;52.040;7.472;2023-05-02T18:21:20;99279.94;;;10.65;100.00
58973;BME280;44750;52.040;7.472;2023-05-02T18:26:20;99376.22;;;10.74;100.00
58973;BME280;44750;52.040;7.472;2023-05-02T18:31:20;99412.13;;;10.38;100.00
58973;BME280;44750;52.040;7.472;2023-05-02T18:36:24;99446.63;;;10.13;100.00
58973;BME280;44750;52.040;7.472;2023-05-02T18:41:25;99392.94;;;10.10;100.00
58973;BME280;44750;52.040;7.472;2023-05-02T18:46:25;99603.72;;;10.58;100.00
58973;BME280;44750;52.040;7.472;2023-05-02T18:51:26;99546.78;;;10.51;100.00
58973;BME280;44750;52.040;7.472;2023-05-02T18:56:26;99595.72;;;10.64;100.00
58973;BME280;44750;52.040;7.472;2023-05-02T19:01:26;99650.34;;;10.91;100.00
58973;BME280;44750;52.040;7.472;2023-05-02T19:06:26;99518.31;;;10.40;100.00
58973;BME280;44750;52.040;7.472;2023-05-02T19:11:27;99730.88;;;10.66;100.00
58973;BME280;44750;52.040;7.472;2023-05-02T19:16:27;99766.59;;;10.61;100.00
58973;BME280;44750;52.040;7.472;2023-05-02T19:21:27;99790.22;;;10.36;100.00
58973;BME280;44750;52.040;7.472;2023-05-02T19:26:28;99902.78;;;10.20;100.00
58973;BME280;44750;52.040;7.472;2023-05-02T19:31:28;100021.13;;;10.18;100.00
58973;BME280;44750;52.040;7.472;2023-05-02T19:36:29;100056.66;;;10.32;100.00
58973;BME280;44750;52.040;7.472;2023-05-02T19:41:29;99972.28;;;10.20;100.00
58973;BME280;44750;52.040;7.472;2023-05-02T19:46:29;100093.19;;;10.44;100.00
58973;BME280;44750;52.040;7.472;2023-05-02T19:51:29;100030.44;;;10.24;100.00
58973;BME280;44750;52.040;7.472;2023-05-02T19:56:29;100124.56;;;10.12;100.00
58973;BME280;44750;52.040;7.472;2023-05-02T20:01:30;100159.66;;;9.96;100.00
58973;BME280;44750;52.040;7.472;2023-05-02T20:06:30;100310.56;;;9.74;100.00
58973;BME280;44750;52.040;7.472;2023-05-02T20:11:30;100467.19;;;9.94;100.00
58973;BME280;44750;52.040;7.472;2023-05-02T20:16:31;100577.72;;;9.79;100.00
58973;BME280;44750;52.040;7.472;2023-05-02T20:21:31;100751.03;;;9.66;100.00
58973;BME280;44750;52.040;7.472;2023-05-02T20:26:31;100915.22;;;9.64;100.00
58973;BME280;44750;52.040;7.472;2023-05-02T20:31:32;100938.09;;;9.40;100.00
58973;BME280;44750;52.040;7.472;2023-05-02T20:36:32;101053.00;;;9.44;100.00
58973;BME280;44750;52.040;7.472;2023-05-02T20:41:32;101127.81;;;9.44;100.00
58973;BME280;44750;52.040;7.472;2023-05-02T20:46:33;101152.25;;;9.42;100.00
58973;BME280;44750;52.040;7.472;2023-05-02T20:51:33;101204.84;;;9.38;100.00
58973;BME280;44750;52.040;7.472;2023-05-02T20:56:33;101204.38;;;9.33;100.00
58973;BME280;44750;52.040;7.472;2023-05-02T21:01:33;101208.16;;;9.20;100.00
58973;BME280;44750;52.040;7.472;2023-05-02T21:06:34;101237.69;;;9.12;100.00
58973;BME280;44750;52.040;7.472;2023-05-02T21:11:34;101212.50;;;8.91;100.00
58973;BME280;44750;52.040;7.472;2023-05-02T21:16:35;101243.09;;;9.12;100.00
58973;BME280;44750;52.040;7.472;2023-05-02T21:21:35;101269.16;;;9.02;100.00
58973;BME280;44750;52.040;7.472;2023-05-02T21:26:37;101278.75;;;8.95;100.00
58973;BME280;44750;52.040;7.472;2023-05-02T21:31:37;101232.97;;;8.61;100.00
58973;BME280;44750;52.040;7.472;2023-05-02T21:36:37;101282.00;;;8.77;100.00
58973;BME280;44750;52.040;7.472;2023-05-02T21:41:38;101282.78;;;8.68;100.00
58973;BME280;44750;52.040;7.472;2023-05-02T21:46:38;101266.47;;;8.35;100.00
58973;BME280;44750;52.040;7.472;2023-05-02T21:51:38;101315.41;;;8.42;100.00
58973;BME280;44750;52.040;7.472;2023-05-02T21:56:39;101317.50;;;8.50;100.00
58973;BME280;44750;52.040;7.472;2023-05-02T22:01:39;101323.75;;;8.39;100.00
58973;BME280;44750;52.040;7.472;2023-05-02T22:06:39;101328.78;;;8.44;100.00
58973;BME280;44750;52.040;7.472;2023-05-02T22:11:39;101319.59;;;8.46;100.00
58973;BME280;44750;52.040;7.472;2023-05-02T22:16:40;101286.13;;;8.15;100.00
58973;BME280;44750;52.040;7.472;2023-05-02T22:21:40;101289.19;;;7.99;100.00
58973;BME280;44750;52.040;7.472;2023-05-02T22:26:40;101327.94;;;8.09;100.00
58973;BME280;44750;52.040;7.472;2023-05-02T22:31:40;101293.09;;;7.83;100.00
58973;BME280;44750;52.040;7.472;2023-05-02T22:36:40;101289.72;;;7.46;100.00
58973;BME280;44750;52.040;7.472;2023-05-02T22:41:41;101325.41;;;7.61;100.00
58973;BME280;44750;52.040;7.472;2023-05-02T22:46:41;101320.25;;;7.58;100.00
58973;BME280;44750;52.040;7.472;2023-05-02T22:51:42;101307.84;;;7.44;100.00
58973;BME280;44750;52.040;7.472;2023-05-02T22:56:42;101322.50;;;7.40;100.00
58973;BME280;44750;52.040;7.472;2023-05-02T23:01:42;101296.19;;;7.08;100.00
58973;BME280;44750;52.040;7.472;2023-05-02T23:06:43;101312.06;;;7.24;100.00
58973;BME280;44750;52.040;7.472;2023-05-02T23:11:43;101302.69;;;7.05;100.00
58973;BME280;44750;52.040;7.472;2023-05-02T23:16:43;101296.00;;;7.11;100.00
58973;BME280;44750;52.040;7.472;2023-05-02T23:21:43;101306.66;;;7.24;100.00
58973;BME280;44750;52.040;7.472;2023-05-02T23:26:44;101286.00;;;7.24;100.00
58973;BME280;44750;52.040;7.472;2023-05-02T23:31:44;101287.22;;;7.31;100.00
58973;BME280;44750;52.040;7.472;2023-05-02T23:36:47;101278.00;;;7.11;100.00
58973;BME280;44750;52.040;7.472;2023-05-02T23:41:48;101284.72;;;7.17;100.00
58973;BME280;44750;52.040;7.472;2023-05-02T23:46:48;101284.84;;;7.15;100.00
58973;BME280;44750;52.040;7.472;2023-05-02T23:51:49;101266.09;;;7.02;100.00
58973;BME280;44750;52.040;7.472;2023-05-02T23:56:51;101280.94;;;7.08;100.00
